sensor_id;sensor_type;location;lat;lon;timestamp;pressure;altitude;pressure_sealevel;temperature;humidity
76086;BME280;64791;0.000;0.000;2023-05-17T00:02:16;93215.66;;;11.61;76.80
76086;BME280;64791;0.000;0.000;2023-05-17T00:04:42;93219.66;;;11.51;76.87
76086;BME280;64791;0.000;0.000;2023-05-17T00:07:09;93215.38;;;11.40;77.63
76086;BME280;64791;0.000;0.000;2023-05-17T00:09:35;93224.72;;;11.27;77.25
76086;BME280;64791;0.000;0.000;2023-05-17T00:12:01;93228.53;;;11.15;77.99
76086;BME280;64791;0.000;0.000;2023-05-17T00:14:27;93233.00;;;11.10;77.32
76086;BME280;64791;0.000;0.000;2023-05-17T00:16:55;93234.03;;;10.98;77.76
76086;BME280;64791;0.000;0.000;2023-05-17T00:19:21;93232.69;;;10.82;78.58
76086;BME280;64791;0.000;0.000;2023-05-17T00:21:47;93238.97;;;10.82;78.45
76086;BME280;64791;0.000;0.000;2023-05-17T00:24:12;93232.22;;;10.76;78.09
76086;BME280;64791;0.000;0.000;2023-05-17T00:26:38;93235.38;;;10.72;77.71
76086;BME280;64791;0.000;0.000;2023-05-17T00:29:04;93236.91;;;10.58;78.56
76086;BME280;64791;0.000;0.000;2023-05-17T00:31:30;93240.69;;;10.45;78.60
76086;BME280;64791;0.000;0.000;2023-05-17T00:33:55;93234.63;;;10.47;78.71
76086;BME280;64791;0.000;0.000;2023-05-17T00:36:21;93237.44;;;10.39;78.22
76086;BME280;64791;0.000;0.000;2023-05-17T00:38:47;93246.72;;;10.27;79.40
76086;BME280;64791;0.000;0.000;2023-05-17T00:41:12;93255.75;;;10.20;79.17
76086;BME280;64791;0.000;0.000;2023-05-17T00:43:38;93247.91;;;10.16;79.12
76086;BME280;64791;0.000;0.000;2023-05-17T00:46:04;93257.84;;;10.12;78.46
76086;BME280;64791;0.000;0.000;2023-05-17T00:48:30;93264.84;;;10.05;78.91
76086;BME280;64791;0.000;0.000;2023-05-17T00:50:55;93261.72;;;10.09;79.88
76086;BME280;64791;0.000;0.000;2023-05-17T00:53:22;93258.53;;;10.20;80.09
76086;BME280;64791;0.000;0.000;2023-05-17T00:55:48;93259.00;;;10.33;79.53
76086;BME280;64791;0.000;0.000;2023-05-17T00:58:14;93254.66;;;10.47;79.12
76086;BME280;64791;0.000;0.000;2023-05-17T01:00:40;93250.72;;;10.58;78.49
76086;BME280;64791;0.000;0.000;2023-05-17T01:03:06;93243.66;;;10.65;78.53
76086;BME280;64791;0.000;0.000;2023-05-17T01:05:32;93242.66;;;10.77;77.85
76086;BME280;64791;0.000;0.000;2023-05-17T01:07:57;93239.38;;;10.79;78.13
76086;BME280;64791;0.000;0.000;2023-05-17T01:10:27;93233.28;;;10.80;77.29
76086;BME280;64791;0.000;0.000;2023-05-17T01:15:33;93234.06;;;10.73;77.17
76086;BME280;64791;0.000;0.000;2023-05-17T01:18:06;93242.22;;;10.64;78.07
76086;BME280;64791;0.000;0.000;2023-05-17T01:20:37;93241.19;;;10.51;78.27
76086;BME280;64791;0.000;0.000;2023-05-17T01:23:09;93238.28;;;10.49;78.62
76086;BME280;64791;0.000;0.000;2023-05-17T01:28:25;93247.13;;;10.48;78.63
76086;BME280;64791;0.000;0.000;2023-05-17T01:30:53;93245.97;;;10.51;78.45
76086;BME280;64791;0.000;0.000;2023-05-17T01:33:19;93248.34;;;10.54;78.25
76086;BME280;64791;0.000;0.000;2023-05-17T01:35:45;93255.31;;;10.55;77.81
76086;BME280;64791;0.000;0.000;2023-05-17T01:38:11;93247.78;;;10.56;78.45
76086;BME280;64791;0.000;0.000;2023-05-17T01:40:47;93254.78;;;10.57;78.54
76086;BME280;64791;0.000;0.000;2023-05-17T01:43:16;93246.09;;;10.61;78.37
76086;BME280;64791;0.000;0.000;2023-05-17T01:46:30;93251.78;;;10.63;78.34
76086;BME280;64791;0.000;0.000;2023-05-17T01:48:35;93260.38;;;10.74;78.25
76086;BME280;64791;0.000;0.000;2023-05-17T01:51:01;93251.09;;;10.79;77.05
76086;BME280;64791;0.000;0.000;2023-05-17T01:55:55;93251.72;;;10.95;76.78
76086;BME280;64791;0.000;0.000;2023-05-17T01:58:24;93246.84;;;11.03;77.16
76086;BME280;64791;0.000;0.000;2023-05-17T02:00:51;93243.53;;;11.04;76.86
76086;BME280;64791;0.000;0.000;2023-05-17T02:03:17;93247.91;;;11.07;76.23
76086;BME280;64791;0.000;0.000;2023-05-17T02:05:43;93246.63;;;11.08;75.84
76086;BME280;64791;0.000;0.000;2023-05-17T02:08:09;93249.22;;;11.06;76.28
76086;BME280;64791;0.000;0.000;2023-05-17T02:10:35;93247.41;;;11.01;77.14
76086;BME280;64791;0.000;0.000;2023-05-17T02:13:01;93244.09;;;11.03;77.19
76086;BME280;64791;0.000;0.000;2023-05-17T02:15:27;93236.72;;;11.05;76.22
76086;BME280;64791;0.000;0.000;2023-05-17T02:17:53;93228.75;;;11.09;76.27
76086;BME280;64791;0.000;0.000;2023-05-17T02:20:19;93232.34;;;11.19;76.71
76086;BME280;64791;0.000;0.000;2023-05-17T02:22:45;93228.53;;;11.15;77.01
76086;BME280;64791;0.000;0.000;2023-05-17T02:25:11;93224.13;;;11.12;76.41
76086;BME280;64791;0.000;0.000;2023-05-17T02:27:38;93239.09;;;11.09;76.26
76086;BME280;64791;0.000;0.000;2023-05-17T02:30:04;93237.84;;;11.02;77.29
76086;BME280;64791;0.000;0.000;2023-05-17T02:32:31;93229.31;;;11.08;77.68
76086;BME280;64791;0.000;0.000;2023-05-17T02:34:57;93240.47;;;11.00;78.55
76086;BME280;64791;0.000;0.000;2023-05-17T02:37:23;93247.84;;;10.98;78.30
76086;BME280;64791;0.000;0.000;2023-05-17T02:39:48;93250.09;;;10.92;77.82
76086;BME280;64791;0.000;0.000;2023-05-17T02:42:14;93252.66;;;10.90;78.10
76086;BME280;64791;0.000;0.000;2023-05-17T02:44:40;93264.44;;;10.90;78.50
76086;BME280;64791;0.000;0.000;2023-05-17T02:47:06;93269.22;;;10.90;78.17
76086;BME280;64791;0.000;0.000;2023-05-17T02:49:33;93270.53;;;10.89;77.99
76086;BME280;64791;0.000;0.000;2023-05-17T02:51:59;93274.34;;;10.93;77.26
76086;BME280;64791;0.000;0.000;2023-05-17T02:54:25;93275.59;;;11.00;77.84
76086;BME280;64791;0.000;0.000;2023-05-17T02:56:51;93276.25;;;11.08;77.90
76086;BME280;64791;0.000;0.000;2023-05-17T02:59:17;93277.78;;;11.18;77.67
76086;BME280;64791;0.000;0.000;2023-05-17T03:01:42;93284.63;;;11.17;77.65
76086;BME280;64791;0.000;0.000;2023-05-17T03:04:09;93292.00;;;11.15;77.59
76086;BME280;64791;0.000;0.000;2023-05-17T03:06:36;93297.22;;;11.28;77.18
76086;BME280;64791;0.000;0.000;2023-05-17T03:09:01;93291.84;;;11.30;76.65
76086;BME280;64791;0.000;0.000;2023-05-17T03:11:28;93299.56;;;11.31;76.26
76086;BME280;64791;0.000;0.000;2023-05-17T03:13:55;93294.22;;;11.33;76.49
76086;BME280;64791;0.000;0.000;2023-05-17T03:16:24;93298.59;;;11.37;76.57
76086;BME280;64791;0.000;0.000;2023-05-17T03:18:51;93301.53;;;11.39;76.42
76086;BME280;64791;0.000;0.000;2023-05-17T03:21:18;93292.84;;;11.42;76.94
76086;BME280;64791;0.000;0.000;2023-05-17T03:23:44;93306.06;;;11.44;76.50
76086;BME280;64791;0.000;0.000;2023-05-17T03:26:09;93307.84;;;11.49;76.10
76086;BME280;64791;0.000;0.000;2023-05-17T03:28:42;93308.59;;;11.49;75.94
76086;BME280;64791;0.000;0.000;2023-05-17T03:31:09;93313.13;;;11.54;76.13
76086;BME280;64791;0.000;0.000;2023-05-17T03:33:34;93306.91;;;11.54;76.00
76086;BME280;64791;0.000;0.000;2023-05-17T03:36:01;93308.34;;;11.55;76.28
76086;BME280;64791;0.000;0.000;2023-05-17T03:38:27;93309.41;;;11.59;76.75
76086;BME280;64791;0.000;0.000;2023-05-17T03:40:53;93311.59;;;11.61;76.30
76086;BME280;64791;0.000;0.000;2023-05-17T03:43:19;93310.88;;;11.60;75.99
76086;BME280;64791;0.000;0.000;2023-05-17T03:45:46;93303.31;;;11.61;76.52
76086;BME280;64791;0.000;0.000;2023-05-17T03:48:12;93303.97;;;11.69;76.52
76086;BME280;64791;0.000;0.000;2023-05-17T03:50:38;93299.56;;;11.66;76.08
76086;BME280;64791;0.000;0.000;2023-05-17T03:53:06;93301.44;;;11.63;76.17
76086;BME280;64791;0.000;0.000;2023-05-17T03:55:31;93301.22;;;11.69;76.55
76086;BME280;64791;0.000;0.000;2023-05-17T03:57:58;93303.56;;;11.72;76.29
76086;BME280;64791;0.000;0.000;2023-05-17T04:00:24;93310.88;;;11.77;76.12
76086;BME280;64791;0.000;0.000;2023-05-17T04:02:55;93310.44;;;11.81;75.93
76086;BME280;64791;0.000;0.000;2023-05-17T04:05:21;93313.84;;;11.89;75.77
76086;BME280;64791;0.000;0.000;2023-05-17T04:07:47;93296.94;;;12.02;75.76
76086;BME280;64791;0.000;0.000;2023-05-17T04:10:13;93297.44;;;12.08;75.57
76086;BME280;64791;0.000;0.000;2023-05-17T04:12:39;93286.91;;;12.24;75.51
76086;BME280;64791;0.000;0.000;2023-05-17T04:15:05;93290.94;;;12.40;74.71
76086;BME280;64791;0.000;0.000;2023-05-17T04:17:31;93292.75;;;12.54;74.43
76086;BME280;64791;0.000;0.000;2023-05-17T04:19:57;93293.06;;;12.58;73.85
76086;BME280;64791;0.000;0.000;2023-05-17T04:22:23;93293.97;;;12.70;73.86
76086;BME280;64791;0.000;0.000;2023-05-17T04:24:48;93298.66;;;12.77;73.71
76086;BME280;64791;0.000;0.000;2023-05-17T04:27:14;93293.09;;;12.68;74.80
76086;BME280;64791;0.000;0.000;2023-05-17T04:29:41;93291.22;;;12.70;74.91
76086;BME280;64791;0.000;0.000;2023-05-17T04:32:07;93298.63;;;12.68;74.82
76086;BME280;64791;0.000;0.000;2023-05-17T04:34:33;93293.81;;;12.68;75.13
76086;BME280;64791;0.000;0.000;2023-05-17T04:37:01;93293.41;;;12.72;75.34
76086;BME280;64791;0.000;0.000;2023-05-17T04:39:27;93298.81;;;12.70;75.40
76086;BME280;64791;0.000;0.000;2023-05-17T04:41:52;93296.03;;;12.70;75.10
76086;BME280;64791;0.000;0.000;2023-05-17T04:44:18;93290.38;;;12.77;75.29
76086;BME280;64791;0.000;0.000;2023-05-17T04:46:44;93295.22;;;12.87;74.83
76086;BME280;64791;0.000;0.000;2023-05-17T04:49:12;93287.28;;;13.10;73.75
76086;BME280;64791;0.000;0.000;2023-05-17T04:51:39;93279.00;;;13.19;72.60
76086;BME280;64791;0.000;0.000;2023-05-17T04:54:06;93288.22;;;13.31;73.41
76086;BME280;64791;0.000;0.000;2023-05-17T04:56:34;93284.59;;;13.57;72.09
76086;BME280;64791;0.000;0.000;2023-05-17T04:59:02;93284.75;;;13.79;71.19
76086;BME280;64791;0.000;0.000;2023-05-17T05:01:28;93280.22;;;13.93;70.91
76086;BME280;64791;0.000;0.000;2023-05-17T05:03:56;93286.78;;;14.07;70.16
76086;BME280;64791;0.000;0.000;2023-05-17T05:06:22;93296.41;;;14.15;69.59
76086;BME280;64791;0.000;0.000;2023-05-17T05:08:48;93287.91;;;14.23;69.47
76086;BME280;64791;0.000;0.000;2023-05-17T05:11:14;93294.66;;;14.20;70.31
76086;BME280;64791;0.000;0.000;2023-05-17T05:13:40;93299.00;;;14.23;70.15
76086;BME280;64791;0.000;0.000;2023-05-17T05:16:07;93308.50;;;14.29;70.28
76086;BME280;64791;0.000;0.000;2023-05-17T05:18:33;93297.09;;;14.35;70.15
76086;BME280;64791;0.000;0.000;2023-05-17T05:20:59;93298.59;;;14.26;69.25
76086;BME280;64791;0.000;0.000;2023-05-17T05:23:25;93291.28;;;14.21;69.55
76086;BME280;64791;0.000;0.000;2023-05-17T05:25:51;93297.72;;;14.24;70.16
76086;BME280;64791;0.000;0.000;2023-05-17T05:28:17;93301.03;;;14.42;70.29
76086;BME280;64791;0.000;0.000;2023-05-17T05:30:43;93303.66;;;14.59;70.44
76086;BME280;64791;0.000;0.000;2023-05-17T05:33:10;93303.59;;;14.78;70.26
76086;BME280;64791;0.000;0.000;2023-05-17T05:35:37;93297.81;;;14.95;70.53
76086;BME280;64791;0.000;0.000;2023-05-17T05:38:03;93298.69;;;14.97;71.15
76086;BME280;64791;0.000;0.000;2023-05-17T05:40:28;93299.38;;;15.07;71.22
76086;BME280;64791;0.000;0.000;2023-05-17T05:42:54;93314.00;;;15.08;70.96
76086;BME280;64791;0.000;0.000;2023-05-17T05:45:20;93306.53;;;15.10;70.28
76086;BME280;64791;0.000;0.000;2023-05-17T05:47:47;93320.44;;;15.01;70.78
76086;BME280;64791;0.000;0.000;2023-05-17T05:50:13;93322.00;;;15.13;69.73
76086;BME280;64791;0.000;0.000;2023-05-17T05:52:41;93322.13;;;15.16;69.20
76086;BME280;64791;0.000;0.000;2023-05-17T05:55:07;93315.66;;;15.23;68.73
76086;BME280;64791;0.000;0.000;2023-05-17T05:57:33;93317.69;;;15.32;68.85
76086;BME280;64791;0.000;0.000;2023-05-17T06:00:00;93318.47;;;15.13;68.58
76086;BME280;64791;0.000;0.000;2023-05-17T06:02:26;93329.03;;;15.15;68.58
76086;BME280;64791;0.000;0.000;2023-05-17T06:04:52;93330.06;;;15.40;68.09
76086;BME280;64791;0.000;0.000;2023-05-17T06:07:18;93331.06;;;15.45;68.13
76086;BME280;64791;0.000;0.000;2023-05-17T06:09:43;93332.41;;;15.65;67.03
76086;BME280;64791;0.000;0.000;2023-05-17T06:12:09;93324.81;;;15.86;67.18
76086;BME280;64791;0.000;0.000;2023-05-17T06:14:35;93324.59;;;16.15;65.68
76086;BME280;64791;0.000;0.000;2023-05-17T06:17:04;93315.00;;;16.07;65.44
76086;BME280;64791;0.000;0.000;2023-05-17T06:19:29;93325.97;;;16.26;65.47
76086;BME280;64791;0.000;0.000;2023-05-17T06:21:55;93331.78;;;16.30;65.59
76086;BME280;64791;0.000;0.000;2023-05-17T06:24:21;93330.84;;;16.37;65.09
76086;BME280;64791;0.000;0.000;2023-05-17T06:26:46;93320.81;;;16.43;64.89
76086;BME280;64791;0.000;0.000;2023-05-17T06:29:12;93330.00;;;16.46;65.38
76086;BME280;64791;0.000;0.000;2023-05-17T06:31:38;93323.78;;;16.57;64.97
76086;BME280;64791;0.000;0.000;2023-05-17T06:34:04;93329.34;;;16.03;65.05
76086;BME280;64791;0.000;0.000;2023-05-17T06:36:29;93321.22;;;15.96;67.37
76086;BME280;64791;0.000;0.000;2023-05-17T06:38:55;93318.34;;;16.05;67.71
76086;BME280;64791;0.000;0.000;2023-05-17T06:41:21;93323.91;;;16.05;67.87
76086;BME280;64791;0.000;0.000;2023-05-17T06:43:46;93324.75;;;15.96;67.17
76086;BME280;64791;0.000;0.000;2023-05-17T06:46:12;93332.75;;;15.80;66.84
76086;BME280;64791;0.000;0.000;2023-05-17T06:48:38;93327.94;;;15.81;67.99
76086;BME280;64791;0.000;0.000;2023-05-17T06:51:04;93325.00;;;16.00;68.11
76086;BME280;64791;0.000;0.000;2023-05-17T06:53:29;93329.97;;;16.02;66.57
76086;BME280;64791;0.000;0.000;2023-05-17T06:55:55;93334.50;;;16.18;67.29
76086;BME280;64791;0.000;0.000;2023-05-17T06:58:21;93328.34;;;16.20;65.83
76086;BME280;64791;0.000;0.000;2023-05-17T07:00:47;93325.91;;;16.47;66.64
76086;BME280;64791;0.000;0.000;2023-05-17T07:03:12;93326.72;;;16.71;66.47
76086;BME280;64791;0.000;0.000;2023-05-17T07:05:38;93337.28;;;16.95;65.42
76086;BME280;64791;0.000;0.000;2023-05-17T07:08:04;93330.19;;;17.15;64.63
76086;BME280;64791;0.000;0.000;2023-05-17T07:10:30;93324.22;;;17.32;64.72
76086;BME280;64791;0.000;0.000;2023-05-17T07:12:55;93331.88;;;17.67;64.23
76086;BME280;64791;0.000;0.000;2023-05-17T07:15:21;93330.63;;;17.93;63.07
76086;BME280;64791;0.000;0.000;2023-05-17T07:17:47;93338.06;;;17.77;61.67
76086;BME280;64791;0.000;0.000;2023-05-17T07:20:13;93344.84;;;17.85;63.27
76086;BME280;64791;0.000;0.000;2023-05-17T07:22:39;93348.31;;;17.97;62.96
76086;BME280;64791;0.000;0.000;2023-05-17T07:25:05;93343.53;;;18.11;62.40
76086;BME280;64791;0.000;0.000;2023-05-17T07:27:31;93346.09;;;18.19;61.57
76086;BME280;64791;0.000;0.000;2023-05-17T07:29:57;93346.03;;;18.31;60.18
76086;BME280;64791;0.000;0.000;2023-05-17T07:32:23;93343.97;;;18.31;60.18
76086;BME280;64791;0.000;0.000;2023-05-17T07:34:48;93355.13;;;18.31;61.04
76086;BME280;64791;0.000;0.000;2023-05-17T07:37:14;93354.06;;;18.36;60.27
76086;BME280;64791;0.000;0.000;2023-05-17T07:39:40;93349.28;;;18.02;60.79
76086;BME280;64791;0.000;0.000;2023-05-17T07:42:06;93345.84;;;18.15;61.54
76086;BME280;64791;0.000;0.000;2023-05-17T07:44:32;93340.94;;;18.39;61.31
76086;BME280;64791;0.000;0.000;2023-05-17T07:46:58;93340.66;;;18.46;61.99
76086;BME280;64791;0.000;0.000;2023-05-17T07:49:25;93349.00;;;18.58;61.61
76086;BME280;64791;0.000;0.000;2023-05-17T07:51:51;93348.72;;;18.65;61.30
76086;BME280;64791;0.000;0.000;2023-05-17T07:54:24;93346.66;;;18.66;61.48
76086;BME280;64791;0.000;0.000;2023-05-17T07:56:51;93353.41;;;18.74;62.18
76086;BME280;64791;0.000;0.000;2023-05-17T07:59:20;93349.38;;;18.77;61.14
76086;BME280;64791;0.000;0.000;2023-05-17T08:01:45;93350.09;;;19.03;59.97
76086;BME280;64791;0.000;0.000;2023-05-17T08:04:11;93350.34;;;19.21;58.86
76086;BME280;64791;0.000;0.000;2023-05-17T08:06:38;93349.38;;;19.41;58.56
76086;BME280;64791;0.000;0.000;2023-05-17T08:09:05;93344.41;;;19.67;58.66
76086;BME280;64791;0.000;0.000;2023-05-17T08:11:31;93343.47;;;19.76;58.08
76086;BME280;64791;0.000;0.000;2023-05-17T08:13:59;93342.13;;;19.91;57.74
76086;BME280;64791;0.000;0.000;2023-05-17T08:16:24;93339.44;;;20.06;57.83
76086;BME280;64791;0.000;0.000;2023-05-17T08:18:51;93342.28;;;20.22;57.41
76086;BME280;64791;0.000;0.000;2023-05-17T08:21:16;93331.66;;;20.48;56.06
76086;BME280;64791;0.000;0.000;2023-05-17T08:23:42;93339.03;;;20.41;55.94
76086;BME280;64791;0.000;0.000;2023-05-17T08:26:08;93344.16;;;20.31;55.88
76086;BME280;64791;0.000;0.000;2023-05-17T08:28:34;93331.09;;;20.22;55.47
76086;BME280;64791;0.000;0.000;2023-05-17T08:31:00;93333.81;;;20.20;55.96
76086;BME280;64791;0.000;0.000;2023-05-17T08:33:26;93344.50;;;20.23;56.54
76086;BME280;64791;0.000;0.000;2023-05-17T08:35:52;93342.63;;;20.01;57.32
76086;BME280;64791;0.000;0.000;2023-05-17T08:38:22;93342.84;;;19.91;57.29
76086;BME280;64791;0.000;0.000;2023-05-17T08:40:52;93352.56;;;19.77;57.02
76086;BME280;64791;0.000;0.000;2023-05-17T08:43:18;93344.19;;;19.49;57.38
76086;BME280;64791;0.000;0.000;2023-05-17T08:45:46;93351.84;;;18.97;58.29
76086;BME280;64791;0.000;0.000;2023-05-17T08:48:14;93347.13;;;18.87;58.50
76086;BME280;64791;0.000;0.000;2023-05-17T08:50:41;93346.50;;;18.75;59.24
76086;BME280;64791;0.000;0.000;2023-05-17T08:53:09;93348.03;;;18.78;60.15
76086;BME280;64791;0.000;0.000;2023-05-17T08:55:35;93348.47;;;18.86;59.29
76086;BME280;64791;0.000;0.000;2023-05-17T08:58:01;93347.34;;;18.92;59.12
76086;BME280;64791;0.000;0.000;2023-05-17T09:00:28;93344.59;;;19.05;58.85
76086;BME280;64791;0.000;0.000;2023-05-17T09:02:57;93350.53;;;19.11;58.84
76086;BME280;64791;0.000;0.000;2023-05-17T09:05:22;93349.78;;;19.11;59.26
76086;BME280;64791;0.000;0.000;2023-05-17T09:07:49;93337.94;;;19.24;59.00
76086;BME280;64791;0.000;0.000;2023-05-17T09:10:15;93341.06;;;19.43;58.16
76086;BME280;64791;0.000;0.000;2023-05-17T09:12:42;93337.97;;;19.51;58.37
76086;BME280;64791;0.000;0.000;2023-05-17T09:15:15;93345.84;;;19.54;58.14
76086;BME280;64791;0.000;0.000;2023-05-17T09:17:42;93339.53;;;19.54;57.93
76086;BME280;64791;0.000;0.000;2023-05-17T09:20:08;93341.38;;;19.77;57.72
76086;BME280;64791;0.000;0.000;2023-05-17T09:22:34;93343.25;;;19.86;57.93
76086;BME280;64791;0.000;0.000;2023-05-17T09:25:01;93340.38;;;20.11;57.15
76086;BME280;64791;0.000;0.000;2023-05-17T09:27:31;93327.13;;;20.41;55.35
76086;BME280;64791;0.000;0.000;2023-05-17T09:29:57;93328.38;;;20.96;54.04
76086;BME280;64791;0.000;0.000;2023-05-17T09:32:23;93330.88;;;21.35;53.66
76086;BME280;64791;0.000;0.000;2023-05-17T09:34:49;93343.22;;;21.59;53.22
76086;BME280;64791;0.000;0.000;2023-05-17T09:37:20;93344.19;;;21.65;52.24
76086;BME280;64791;0.000;0.000;2023-05-17T09:39:47;93359.84;;;21.55;51.64
76086;BME280;64791;0.000;0.000;2023-05-17T09:42:13;93370.91;;;21.06;52.82
76086;BME280;64791;0.000;0.000;2023-05-17T09:47:20;93361.34;;;20.39;53.77
76086;BME280;64791;0.000;0.000;2023-05-17T09:49:46;93360.88;;;20.15;54.97
76086;BME280;64791;0.000;0.000;2023-05-17T09:52:15;93363.59;;;20.00;55.40
76086;BME280;64791;0.000;0.000;2023-05-17T09:54:41;93370.22;;;19.79;56.18
76086;BME280;64791;0.000;0.000;2023-05-17T09:57:07;93363.16;;;19.64;56.59
76086;BME280;64791;0.000;0.000;2023-05-17T09:59:34;93357.97;;;19.45;56.97
76086;BME280;64791;0.000;0.000;2023-05-17T10:02:01;93350.69;;;19.27;57.61
76086;BME280;64791;0.000;0.000;2023-05-17T10:04:29;93349.88;;;19.38;57.68
76086;BME280;64791;0.000;0.000;2023-05-17T10:06:58;93343.06;;;19.54;57.95
76086;BME280;64791;0.000;0.000;2023-05-17T10:09:25;93342.75;;;19.62;58.01
76086;BME280;64791;0.000;0.000;2023-05-17T10:11:54;93331.34;;;19.72;57.21
76086;BME280;64791;0.000;0.000;2023-05-17T10:14:31;93325.13;;;19.87;56.88
76086;BME280;64791;0.000;0.000;2023-05-17T10:16:57;93316.44;;;19.81;56.98
76086;BME280;64791;0.000;0.000;2023-05-17T10:19:23;93310.72;;;19.65;57.95
76086;BME280;64791;0.000;0.000;2023-05-17T10:21:50;93308.22;;;19.57;57.33
76086;BME280;64791;0.000;0.000;2023-05-17T10:24:15;93305.22;;;19.53;57.09
76086;BME280;64791;0.000;0.000;2023-05-17T10:26:42;93296.50;;;19.34;59.02
76086;BME280;64791;0.000;0.000;2023-05-17T10:29:07;93291.19;;;18.99;60.11
76086;BME280;64791;0.000;0.000;2023-05-17T10:31:33;93282.25;;;18.89;59.73
76086;BME280;64791;0.000;0.000;2023-05-17T10:34:01;93274.91;;;18.96;59.46
76086;BME280;64791;0.000;0.000;2023-05-17T10:36:27;93269.31;;;18.96;59.79
76086;BME280;64791;0.000;0.000;2023-05-17T10:38:53;93271.31;;;19.07;59.38
76086;BME280;64791;0.000;0.000;2023-05-17T10:41:22;93270.19;;;19.25;58.40
76086;BME280;64791;0.000;0.000;2023-05-17T10:43:50;93259.22;;;19.43;58.39
76086;BME280;64791;0.000;0.000;2023-05-17T10:46:18;93250.59;;;19.80;57.34
76086;BME280;64791;0.000;0.000;2023-05-17T10:48:47;93253.75;;;20.01;56.14
76086;BME280;64791;0.000;0.000;2023-05-17T10:51:14;93242.56;;;20.60;55.23
76086;BME280;64791;0.000;0.000;2023-05-17T10:54:06;93234.38;;;20.95;54.36
76086;BME280;64791;0.000;0.000;2023-05-17T10:56:32;93219.81;;;21.30;52.88
76086;BME280;64791;0.000;0.000;2023-05-17T11:01:49;93222.88;;;21.84;51.41
76086;BME280;64791;0.000;0.000;2023-05-17T11:04:20;93225.06;;;22.04;51.62
76086;BME280;64791;0.000;0.000;2023-05-17T11:06:50;93211.38;;;22.29;52.38
76086;BME280;64791;0.000;0.000;2023-05-17T11:09:16;93205.84;;;22.49;50.83
76086;BME280;64791;0.000;0.000;2023-05-17T11:14:35;93202.44;;;22.70;49.47
76086;BME280;64791;0.000;0.000;2023-05-17T11:17:16;93201.81;;;22.91;48.32
76086;BME280;64791;0.000;0.000;2023-05-17T11:22:15;93208.44;;;22.80;48.49
76086;BME280;64791;0.000;0.000;2023-05-17T11:24:43;93218.91;;;22.97;47.81
76086;BME280;64791;0.000;0.000;2023-05-17T11:27:11;93219.28;;;22.88;47.44
76086;BME280;64791;0.000;0.000;2023-05-17T11:29:40;93222.38;;;22.96;47.29
76086;BME280;64791;0.000;0.000;2023-05-17T11:32:08;93228.69;;;22.77;47.09
76086;BME280;64791;0.000;0.000;2023-05-17T11:34:34;93236.56;;;22.62;47.07
76086;BME280;64791;0.000;0.000;2023-05-17T11:37:00;93251.84;;;22.40;47.97
76086;BME280;64791;0.000;0.000;2023-05-17T11:39:27;93253.81;;;22.20;47.28
76086;BME280;64791;0.000;0.000;2023-05-17T11:41:53;93267.94;;;22.22;47.86
76086;BME280;64791;0.000;0.000;2023-05-17T11:44:29;93270.19;;;22.08;48.16
76086;BME280;64791;0.000;0.000;2023-05-17T11:47:02;93258.94;;;21.74;48.89
76086;BME280;64791;0.000;0.000;2023-05-17T11:49:29;93264.84;;;21.49;49.52
76086;BME280;64791;0.000;0.000;2023-05-17T11:51:55;93276.63;;;21.46;49.84
76086;BME280;64791;0.000;0.000;2023-05-17T11:54:21;93273.28;;;21.49;49.82
76086;BME280;64791;0.000;0.000;2023-05-17T11:56:48;93276.81;;;21.65;49.82
76086;BME280;64791;0.000;0.000;2023-05-17T11:59:20;93269.19;;;21.68;49.51
76086;BME280;64791;0.000;0.000;2023-05-17T12:01:47;93270.91;;;21.75;48.98
76086;BME280;64791;0.000;0.000;2023-05-17T12:04:13;93271.31;;;21.85;48.78
76086;BME280;64791;0.000;0.000;2023-05-17T12:06:39;93274.56;;;21.95;49.28
76086;BME280;64791;0.000;0.000;2023-05-17T12:09:05;93270.84;;;22.06;48.65
76086;BME280;64791;0.000;0.000;2023-05-17T12:11:35;93270.47;;;21.98;49.03
76086;BME280;64791;0.000;0.000;2023-05-17T12:14:03;93264.94;;;21.67;49.00
76086;BME280;64791;0.000;0.000;2023-05-17T12:16:28;93262.59;;;21.61;48.72
76086;BME280;64791;0.000;0.000;2023-05-17T12:18:54;93266.66;;;21.58;47.14
76086;BME280;64791;0.000;0.000;2023-05-17T12:21:22;93268.06;;;21.26;48.88
76086;BME280;64791;0.000;0.000;2023-05-17T12:23:49;93260.72;;;21.19;48.80
76086;BME280;64791;0.000;0.000;2023-05-17T12:26:15;93260.38;;;21.11;50.01
76086;BME280;64791;0.000;0.000;2023-05-17T12:28:42;93266.50;;;21.23;50.23
76086;BME280;64791;0.000;0.000;2023-05-17T12:31:12;93268.31;;;21.17;49.54
76086;BME280;64791;0.000;0.000;2023-05-17T12:33:40;93255.00;;;21.01;50.38
76086;BME280;64791;0.000;0.000;2023-05-17T12:36:06;93255.81;;;20.88;51.39
76086;BME280;64791;0.000;0.000;2023-05-17T12:38:33;93252.13;;;20.84;51.50
76086;BME280;64791;0.000;0.000;2023-05-17T12:41:00;93254.59;;;20.78;51.51
76086;BME280;64791;0.000;0.000;2023-05-17T12:43:26;93245.00;;;20.67;51.95
76086;BME280;64791;0.000;0.000;2023-05-17T12:45:55;93244.13;;;20.78;51.22
76086;BME280;64791;0.000;0.000;2023-05-17T12:48:23;93244.72;;;20.90;51.31
76086;BME280;64791;0.000;0.000;2023-05-17T12:50:51;93245.69;;;20.97;51.59
76086;BME280;64791;0.000;0.000;2023-05-17T12:53:16;93241.41;;;20.80;52.37
76086;BME280;64791;0.000;0.000;2023-05-17T12:55:42;93239.34;;;20.81;51.56
76086;BME280;64791;0.000;0.000;2023-05-17T12:58:08;93240.22;;;20.70;51.14
76086;BME280;64791;0.000;0.000;2023-05-17T13:00:34;93242.16;;;20.36;52.33
76086;BME280;64791;0.000;0.000;2023-05-17T13:02:59;93240.78;;;20.37;52.31
76086;BME280;64791;0.000;0.000;2023-05-17T13:05:25;93245.34;;;20.15;52.77
76086;BME280;64791;0.000;0.000;2023-05-17T13:07:52;93242.41;;;20.26;51.57
76086;BME280;64791;0.000;0.000;2023-05-17T13:12:58;93256.47;;;19.86;53.28
76086;BME280;64791;0.000;0.000;2023-05-17T13:17:53;93253.59;;;19.84;53.28
76086;BME280;64791;0.000;0.000;2023-05-17T13:20:19;93260.53;;;19.83;53.93
76086;BME280;64791;0.000;0.000;2023-05-17T13:22:46;93247.16;;;19.81;53.11
76086;BME280;64791;0.000;0.000;2023-05-17T13:25:12;93250.28;;;19.74;54.08
76086;BME280;64791;0.000;0.000;2023-05-17T13:27:38;93247.78;;;19.80;53.90
76086;BME280;64791;0.000;0.000;2023-05-17T13:30:13;93248.31;;;19.76;53.86
76086;BME280;64791;0.000;0.000;2023-05-17T13:32:39;93250.09;;;19.70;54.16